sensor_id;sensor_type;location;lat;lon;timestamp;P1;durP1;ratioP1;P2;durP2;ratioP2
19235;SDS011;9752;54.270;12.470;2023-07-16T00:01:09;14.87;;;14.17;;
19235;SDS011;9752;54.270;12.470;2023-07-16T00:06:12;15.77;;;15.07;;
19235;SDS011;9752;54.270;12.470;2023-07-16T00:11:14;15.60;;;14.90;;
19235;SDS011;9752;54.270;12.470;2023-07-16T00:16:16;15.20;;;14.20;;
19235;SDS011;9752;54.270;12.470;2023-07-16T00:21:19;14.07;;;13.47;;
19235;SDS011;9752;54.270;12.470;2023-07-16T00:26:20;14.73;;;14.03;;
19235;SDS011;9752;54.270;12.470;2023-07-16T00:31:22;14.87;;;14.17;;
19235;SDS011;9752;54.270;12.470;2023-07-16T00:36:25;14.73;;;13.93;;
19235;SDS011;9752;54.270;12.470;2023-07-16T00:41:27;14.80;;;13.80;;
19235;SDS011;9752;54.270;12.470;2023-07-16T00:46:28;14.20;;;13.50;;
19235;SDS011;9752;54.270;12.470;2023-07-16T00:51:31;13.80;;;12.90;;
19235;SDS011;9752;54.270;12.470;2023-07-16T00:56:33;14.03;;;13.33;;
19235;SDS011;9752;54.270;12.470;2023-07-16T01:01:36;15.00;;;13.73;;
19235;SDS011;9752;54.270;12.470;2023-07-16T01:06:42;13.30;;;12.40;;
19235;SDS011;9752;54.270;12.470;2023-07-16T01:11:47;12.20;;;11.40;;
19235;SDS011;9752;54.270;12.470;2023-07-16T01:16:50;12.27;;;11.13;;
19235;SDS011;9752;54.270;12.470;2023-07-16T01:22:03;11.07;;;9.97;;
19235;SDS011;9752;54.270;12.470;2023-07-16T01:27:34;9.30;;;8.70;;
19235;SDS011;9752;54.270;12.470;2023-07-16T01:32:52;9.53;;;8.80;;
19235;SDS011;9752;54.270;12.470;2023-07-16T01:37:54;10.13;;;9.30;;
19235;SDS011;9752;54.270;12.470;2023-07-16T01:42:56;10.20;;;9.30;;
19235;SDS011;9752;54.270;12.470;2023-07-16T01:48:01;9.40;;;8.70;;
19235;SDS011;9752;54.270;12.470;2023-07-16T01:53:14;11.23;;;10.00;;
19235;SDS011;9752;54.270;12.470;2023-07-16T01:58:16;9.77;;;9.30;;
19235;SDS011;9752;54.270;12.470;2023-07-16T02:03:19;9.63;;;8.93;;
19235;SDS011;9752;54.270;12.470;2023-07-16T02:08:21;9.60;;;9.00;;
19235;SDS011;9752;54.270;12.470;2023-07-16T02:13:23;9.63;;;8.83;;
19235;SDS011;9752;54.270;12.470;2023-07-16T02:18:26;9.00;;;8.20;;
19235;SDS011;9752;54.270;12.470;2023-07-16T02:23:27;7.63;;;7.10;;
19235;SDS011;9752;54.270;12.470;2023-07-16T02:28:29;6.83;;;6.27;;
19235;SDS011;9752;54.270;12.470;2023-07-16T02:33:32;7.80;;;6.40;;
19235;SDS011;9752;54.270;12.470;2023-07-16T02:38:34;6.17;;;5.57;;
19235;SDS011;9752;54.270;12.470;2023-07-16T02:43:35;6.33;;;5.73;;
19235;SDS011;9752;54.270;12.470;2023-07-16T02:48:38;6.67;;;6.17;;
19235;SDS011;9752;54.270;12.470;2023-07-16T02:53:40;6.27;;;5.90;;
19235;SDS011;9752;54.270;12.470;2023-07-16T02:58:41;8.37;;;6.20;;
19235;SDS011;9752;54.270;12.470;2023-07-16T03:03:44;6.43;;;6.03;;
19235;SDS011;9752;54.270;12.470;2023-07-16T03:08:46;5.50;;;5.00;;
19235;SDS011;9752;54.270;12.470;2023-07-16T03:13:50;5.60;;;5.20;;
19235;SDS011;9752;54.270;12.470;2023-07-16T03:18:53;9.13;;;5.00;;
19235;SDS011;9752;54.270;12.470;2023-07-16T03:23:55;4.80;;;4.50;;
19235;SDS011;9752;54.270;12.470;2023-07-16T03:28:57;5.97;;;5.37;;
19235;SDS011;9752;54.270;12.470;2023-07-16T03:34:00;6.43;;;4.67;;
19235;SDS011;9752;54.270;12.470;2023-07-16T03:39:05;8.53;;;4.73;;
19235;SDS011;9752;54.270;12.470;2023-07-16T03:44:08;5.27;;;4.83;;
19235;SDS011;9752;54.270;12.470;2023-07-16T03:49:12;9.83;;;5.20;;
19235;SDS011;9752;54.270;12.470;2023-07-16T03:54:14;5.23;;;4.53;;
19235;SDS011;9752;54.270;12.470;2023-07-16T03:59:17;10.03;;;4.80;;
19235;SDS011;9752;54.270;12.470;2023-07-16T04:04:21;4.67;;;4.23;;
19235;SDS011;9752;54.270;12.470;2023-07-16T04:09:22;4.73;;;4.37;;
19235;SDS011;9752;54.270;12.470;2023-07-16T04:14:24;5.57;;;5.07;;
19235;SDS011;9752;54.270;12.470;2023-07-16T04:19:28;7.37;;;5.10;;
19235;SDS011;9752;54.270;12.470;2023-07-16T04:24:29;4.93;;;4.43;;
19235;SDS011;9752;54.270;12.470;2023-07-16T04:29:31;5.13;;;4.60;;
19235;SDS011;9752;54.270;12.470;2023-07-16T04:34:34;4.77;;;4.37;;
19235;SDS011;9752;54.270;12.470;2023-07-16T04:39:35;4.50;;;4.20;;
19235;SDS011;9752;54.270;12.470;2023-07-16T04:44:37;4.60;;;4.30;;
19235;SDS011;9752;54.270;12.470;2023-07-16T04:49:40;4.53;;;4.13;;
19235;SDS011;9752;54.270;12.470;2023-07-16T04:54:42;7.30;;;3.97;;
19235;SDS011;9752;54.270;12.470;2023-07-16T04:59:43;5.20;;;4.33;;
19235;SDS011;9752;54.270;12.470;2023-07-16T05:04:46;6.00;;;4.33;;
19235;SDS011;9752;54.270;12.470;2023-07-16T05:09:48;7.03;;;5.03;;
19235;SDS011;9752;54.270;12.470;2023-07-16T05:14:51;5.17;;;4.77;;
19235;SDS011;9752;54.270;12.470;2023-07-16T05:19:54;5.23;;;4.80;;
19235;SDS011;9752;54.270;12.470;2023-07-16T05:24:55;5.80;;;4.63;;
19235;SDS011;9752;54.270;12.470;2023-07-16T05:29:57;5.47;;;5.10;;
19235;SDS011;9752;54.270;12.470;2023-07-16T05:35:00;5.33;;;4.80;;
19235;SDS011;9752;54.270;12.470;2023-07-16T05:40:02;5.80;;;5.30;;
19235;SDS011;9752;54.270;12.470;2023-07-16T05:45:04;5.17;;;4.70;;
19235;SDS011;9752;54.270;12.470;2023-07-16T05:50:09;6.00;;;4.80;;
19235;SDS011;9752;54.270;12.470;2023-07-16T05:55:10;6.73;;;5.10;;
19235;SDS011;9752;54.270;12.470;2023-07-16T06:00:12;5.13;;;4.73;;
19235;SDS011;9752;54.270;12.470;2023-07-16T06:05:17;5.03;;;4.63;;
19235;SDS011;9752;54.270;12.470;2023-07-16T06:10:19;5.43;;;4.63;;
19235;SDS011;9752;54.270;12.470;2023-07-16T06:15:21;5.87;;;5.37;;
19235;SDS011;9752;54.270;12.470;2023-07-16T06:20:24;6.07;;;5.60;;
19235;SDS011;9752;54.270;12.470;2023-07-16T06:25:25;7.30;;;6.60;;
19235;SDS011;9752;54.270;12.470;2023-07-16T06:30:27;6.70;;;6.10;;
19235;SDS011;9752;54.270;12.470;2023-07-16T06:35:32;7.17;;;6.67;;
19235;SDS011;9752;54.270;12.470;2023-07-16T06:40:34;8.03;;;7.33;;
19235;SDS011;9752;54.270;12.470;2023-07-16T06:45:35;8.00;;;7.50;;
19235;SDS011;9752;54.270;12.470;2023-07-16T06:50:38;8.00;;;7.30;;
19235;SDS011;9752;54.270;12.470;2023-07-16T06:55:40;7.40;;;6.90;;
19235;SDS011;9752;54.270;12.470;2023-07-16T07:00:41;7.40;;;6.90;;
19235;SDS011;9752;54.270;12.470;2023-07-16T07:05:44;7.27;;;6.70;;
19235;SDS011;9752;54.270;12.470;2023-07-16T07:10:46;8.43;;;7.73;;
19235;SDS011;9752;54.270;12.470;2023-07-16T07:15:49;7.57;;;7.07;;
19235;SDS011;9752;54.270;12.470;2023-07-16T07:20:52;9.63;;;9.00;;
19235;SDS011;9752;54.270;12.470;2023-07-16T07:25:54;10.87;;;9.80;;
19235;SDS011;9752;54.270;12.470;2023-07-16T07:30:57;10.83;;;9.77;;
19235;SDS011;9752;54.270;12.470;2023-07-16T07:36:00;11.67;;;10.57;;
19235;SDS011;9752;54.270;12.470;2023-07-16T07:41:02;10.90;;;10.20;;
19235;SDS011;9752;54.270;12.470;2023-07-16T07:46:05;12.83;;;12.03;;
19235;SDS011;9752;54.270;12.470;2023-07-16T07:51:08;12.00;;;10.83;;
19235;SDS011;9752;54.270;12.470;2023-07-16T07:56:10;11.50;;;10.67;;
19235;SDS011;9752;54.270;12.470;2023-07-16T08:01:12;13.27;;;12.20;;
19235;SDS011;9752;54.270;12.470;2023-07-16T08:06:15;14.10;;;13.27;;
19235;SDS011;9752;54.270;12.470;2023-07-16T08:11:16;13.47;;;12.63;;
19235;SDS011;9752;54.270;12.470;2023-07-16T08:16:18;13.97;;;13.10;;
19235;SDS011;9752;54.270;12.470;2023-07-16T08:21:21;14.60;;;13.80;;
19235;SDS011;9752;54.270;12.470;2023-07-16T08:26:23;13.37;;;12.77;;
19235;SDS011;9752;54.270;12.470;2023-07-16T08:31:24;15.33;;;14.23;;
19235;SDS011;9752;54.270;12.470;2023-07-16T08:36:28;15.40;;;14.20;;
19235;SDS011;9752;54.270;12.470;2023-07-16T08:41:29;15.73;;;14.50;;
19235;SDS011;9752;54.270;12.470;2023-07-16T08:46:31;14.47;;;13.47;;
19235;SDS011;9752;54.270;12.470;2023-07-16T08:51:35;14.37;;;13.60;;
19235;SDS011;9752;54.270;12.470;2023-07-16T08:56:39;14.57;;;13.57;;
19235;SDS011;9752;54.270;12.470;2023-07-16T09:01:41;15.20;;;14.20;;
19235;SDS011;9752;54.270;12.470;2023-07-16T09:06:44;14.33;;;13.33;;
19235;SDS011;9752;54.270;12.470;2023-07-16T09:11:46;14.30;;;13.37;;
19235;SDS011;9752;54.270;12.470;2023-07-16T09:16:48;14.20;;;13.53;;
19235;SDS011;9752;54.270;12.470;2023-07-16T09:21:52;15.07;;;14.27;;
19235;SDS011;9752;54.270;12.470;2023-07-16T09:26:54;12.97;;;12.27;;
19235;SDS011;9752;54.270;12.470;2023-07-16T09:31:57;15.03;;;14.17;;
19235;SDS011;9752;54.270;12.470;2023-07-16T09:37:01;13.47;;;12.77;;
19235;SDS011;9752;54.270;12.470;2023-07-16T09:42:04;12.70;;;11.90;;
19235;SDS011;9752;54.270;12.470;2023-07-16T09:47:07;13.83;;;12.63;;
19235;SDS011;9752;54.270;12.470;2023-07-16T09:52:10;14.03;;;13.10;;
19235;SDS011;9752;54.270;12.470;2023-07-16T09:57:13;14.10;;;13.40;;
19235;SDS011;9752;54.270;12.470;2023-07-16T10:02:16;13.83;;;13.00;;
19235;SDS011;9752;54.270;12.470;2023-07-16T10:07:20;15.50;;;14.40;;
19235;SDS011;9752;54.270;12.470;2023-07-16T10:12:23;16.67;;;15.43;;
19235;SDS011;9752;54.270;12.470;2023-07-16T10:17:26;13.60;;;12.87;;
19235;SDS011;9752;54.270;12.470;2023-07-16T10:22:33;12.93;;;12.23;;
19235;SDS011;9752;54.270;12.470;2023-07-16T10:27:37;14.20;;;13.33;;
19235;SDS011;9752;54.270;12.470;2023-07-16T10:32:38;14.20;;;13.40;;
19235;SDS011;9752;54.270;12.470;2023-07-16T10:37:42;13.33;;;12.70;;
19235;SDS011;9752;54.270;12.470;2023-07-16T10:42:43;15.53;;;14.83;;
19235;SDS011;9752;54.270;12.470;2023-07-16T10:47:51;14.87;;;14.10;;
19235;SDS011;9752;54.270;12.470;2023-07-16T10:52:56;15.53;;;14.50;;
19235;SDS011;9752;54.270;12.470;2023-07-16T10:57:58;16.20;;;15.17;;
19235;SDS011;9752;54.270;12.470;2023-07-16T11:03:00;16.60;;;15.50;;
19235;SDS011;9752;54.270;12.470;2023-07-16T11:08:03;14.90;;;13.87;;
19235;SDS011;9752;54.270;12.470;2023-07-16T11:13:05;16.50;;;15.63;;
19235;SDS011;9752;54.270;12.470;2023-07-16T11:18:06;17.60;;;16.60;;
19235;SDS011;9752;54.270;12.470;2023-07-16T11:23:11;17.73;;;16.73;;
19235;SDS011;9752;54.270;12.470;2023-07-16T11:28:12;15.67;;;14.97;;
19235;SDS011;9752;54.270;12.470;2023-07-16T11:33:14;17.30;;;16.43;;
19235;SDS011;9752;54.270;12.470;2023-07-16T11:38:18;15.80;;;14.83;;
19235;SDS011;9752;54.270;12.470;2023-07-16T11:43:21;15.87;;;14.90;;
19235;SDS011;9752;54.270;12.470;2023-07-16T11:48:22;16.27;;;15.30;;
19235;SDS011;9752;54.270;12.470;2023-07-16T11:53:25;16.80;;;15.80;;
19235;SDS011;9752;54.270;12.470;2023-07-16T11:58:27;16.53;;;15.80;;
19235;SDS011;9752;54.270;12.470;2023-07-16T12:03:29;15.97;;;15.10;;
19235;SDS011;9752;54.270;12.470;2023-07-16T12:08:32;15.27;;;14.50;;
19235;SDS011;9752;54.270;12.470;2023-07-16T12:13:33;17.63;;;16.43;;
19235;SDS011;9752;54.270;12.470;2023-07-16T12:18:35;17.23;;;16.53;;
19235;SDS011;9752;54.270;12.470;2023-07-16T12:23:38;17.60;;;16.70;;
19235;SDS011;9752;54.270;12.470;2023-07-16T12:28:39;15.50;;;14.57;;
19235;SDS011;9752;54.270;12.470;2023-07-16T12:33:41;17.53;;;16.63;;
19235;SDS011;9752;54.270;12.470;2023-07-16T12:38:44;17.73;;;16.80;;
19235;SDS011;9752;54.270;12.470;2023-07-16T12:43:46;16.60;;;15.80;;
19235;SDS011;9752;54.270;12.470;2023-07-16T12:48:48;16.17;;;15.20;;
19235;SDS011;9752;54.270;12.470;2023-07-16T12:53:51;17.70;;;16.67;;
19235;SDS011;9752;54.270;12.470;2023-07-16T12:58:52;16.63;;;15.73;;
19235;SDS011;9752;54.270;12.470;2023-07-16T13:03:54;18.83;;;17.70;;
19235;SDS011;9752;54.270;12.470;2023-07-16T13:08:57;17.00;;;15.70;;
19235;SDS011;9752;54.270;12.470;2023-07-16T13:13:59;16.97;;;16.00;;
19235;SDS011;9752;54.270;12.470;2023-07-16T13:19:01;18.90;;;17.80;;
19235;SDS011;9752;54.270;12.470;2023-07-16T13:24:05;18.10;;;17.20;;
19235;SDS011;9752;54.270;12.470;2023-07-16T13:29:07;18.53;;;17.53;;
19235;SDS011;9752;54.270;12.470;2023-07-16T13:34:08;19.23;;;17.80;;
19235;SDS011;9752;54.270;12.470;2023-07-16T13:39:11;17.17;;;16.07;;
19235;SDS011;9752;54.270;12.470;2023-07-16T13:44:13;19.70;;;18.50;;
19235;SDS011;9752;54.270;12.470;2023-07-16T13:49:15;19.60;;;18.60;;
19235;SDS011;9752;54.270;12.470;2023-07-16T13:54:18;18.60;;;17.50;;
19235;SDS011;9752;54.270;12.470;2023-07-16T13:59:19;19.40;;;18.13;;
19235;SDS011;9752;54.270;12.470;2023-07-16T14:04:21;19.30;;;18.00;;
19235;SDS011;9752;54.270;12.470;2023-07-16T14:09:24;19.27;;;18.10;;
19235;SDS011;9752;54.270;12.470;2023-07-16T14:14:26;18.63;;;17.33;;
19235;SDS011;9752;54.270;12.470;2023-07-16T14:19:27;17.40;;;16.27;;
19235;SDS011;9752;54.270;12.470;2023-07-16T14:24:31;17.53;;;16.23;;
19235;SDS011;9752;54.270;12.470;2023-07-16T14:29:32;19.27;;;18.03;;
19235;SDS011;9752;54.270;12.470;2023-07-16T14:34:34;18.73;;;17.43;;
19235;SDS011;9752;54.270;12.470;2023-07-16T14:39:37;18.83;;;17.63;;
19235;SDS011;9752;54.270;12.470;2023-07-16T14:44:39;18.33;;;17.07;;
19235;SDS011;9752;54.270;12.470;2023-07-16T14:49:41;19.00;;;17.90;;
19235;SDS011;9752;54.270;12.470;2023-07-16T14:54:44;17.40;;;16.30;;
19235;SDS011;9752;54.270;12.470;2023-07-16T14:59:46;17.70;;;16.60;;
19235;SDS011;9752;54.270;12.470;2023-07-16T15:04:48;16.40;;;15.50;;
19235;SDS011;9752;54.270;12.470;2023-07-16T15:09:51;16.47;;;15.27;;
19235;SDS011;9752;54.270;12.470;2023-07-16T15:14:53;16.40;;;15.53;;
19235;SDS011;9752;54.270;12.470;2023-07-16T15:19:54;17.43;;;16.50;;
19235;SDS011;9752;54.270;12.470;2023-07-16T15:24:57;17.50;;;16.27;;
19235;SDS011;9752;54.270;12.470;2023-07-16T15:30:00;16.87;;;15.83;;
19235;SDS011;9752;54.270;12.470;2023-07-16T15:35:03;17.07;;;15.97;;
19235;SDS011;9752;54.270;12.470;2023-07-16T15:40:12;18.73;;;17.83;;
19235;SDS011;9752;54.270;12.470;2023-07-16T15:45:15;17.20;;;16.23;;
19235;SDS011;9752;54.270;12.470;2023-07-16T15:50:17;16.20;;;15.30;;
19235;SDS011;9752;54.270;12.470;2023-07-16T15:55:20;17.47;;;16.37;;
19235;SDS011;9752;54.270;12.470;2023-07-16T16:00:22;17.83;;;16.63;;
19235;SDS011;9752;54.270;12.470;2023-07-16T16:05:25;18.83;;;17.53;;
19235;SDS011;9752;54.270;12.470;2023-07-16T16:10:28;16.87;;;15.67;;
19235;SDS011;9752;54.270;12.470;2023-07-16T16:15:30;18.37;;;17.27;;
19235;SDS011;9752;54.270;12.470;2023-07-16T16:20:32;17.13;;;16.23;;
19235;SDS011;9752;54.270;12.470;2023-07-16T16:25:35;15.73;;;14.87;;
19235;SDS011;9752;54.270;12.470;2023-07-16T16:30:37;17.50;;;16.50;;
19235;SDS011;9752;54.270;12.470;2023-07-16T16:35:41;16.63;;;15.63;;
19235;SDS011;9752;54.270;12.470;2023-07-16T16:40:45;16.73;;;15.77;;
19235;SDS011;9752;54.270;12.470;2023-07-16T16:45:47;17.60;;;16.40;;
19235;SDS011;9752;54.270;12.470;2023-07-16T16:50:49;16.87;;;15.53;;
19235;SDS011;9752;54.270;12.470;2023-07-16T16:55:56;16.03;;;15.03;;
19235;SDS011;9752;54.270;12.470;2023-07-16T17:00:58;16.10;;;15.13;;
19235;SDS011;9752;54.270;12.470;2023-07-16T17:06:00;16.33;;;15.53;;
19235;SDS011;9752;54.270;12.470;2023-07-16T17:11:02;16.80;;;15.70;;
19235;SDS011;9752;54.270;12.470;2023-07-16T17:16:04;16.27;;;15.38;;
19235;SDS011;9752;54.270;12.470;2023-07-16T17:21:06;16.33;;;15.50;;
19235;SDS011;9752;54.270;12.470;2023-07-16T17:26:09;16.33;;;15.40;;
19235;SDS011;9752;54.270;12.470;2023-07-16T17:31:12;17.33;;;16.27;;
19235;SDS011;9752;54.270;12.470;2023-07-16T17:36:13;17.73;;;16.53;;
19235;SDS011;9752;54.270;12.470;2023-07-16T17:41:16;17.10;;;16.13;;
19235;SDS011;9752;54.270;12.470;2023-07-16T17:46:18;16.40;;;15.50;;
19235;SDS011;9752;54.270;12.470;2023-07-16T17:51:20;17.03;;;15.87;;
19235;SDS011;9752;54.270;12.470;2023-07-16T17:56:23;16.40;;;15.20;;
19235;SDS011;9752;54.270;12.470;2023-07-16T18:01:25;18.47;;;16.90;;
19235;SDS011;9752;54.270;12.470;2023-07-16T18:06:31;16.27;;;15.20;;
19235;SDS011;9752;54.270;12.470;2023-07-16T18:11:34;16.90;;;15.90;;
19235;SDS011;9752;54.270;12.470;2023-07-16T18:16:36;16.53;;;15.23;;
19235;SDS011;9752;54.270;12.470;2023-07-16T18:21:37;16.60;;;15.50;;
19235;SDS011;9752;54.270;12.470;2023-07-16T18:26:41;17.47;;;15.97;;
19235;SDS011;9752;54.270;12.470;2023-07-16T18:31:42;16.53;;;15.43;;
19235;SDS011;9752;54.270;12.470;2023-07-16T18:36:44;16.50;;;15.43;;
19235;SDS011;9752;54.270;12.470;2023-07-16T18:41:47;17.63;;;16.33;;
19235;SDS011;9752;54.270;12.470;2023-07-16T18:46:49;17.50;;;16.50;;
19235;SDS011;9752;54.270;12.470;2023-07-16T18:51:51;17.20;;;16.03;;
19235;SDS011;9752;54.270;12.470;2023-07-16T18:56:54;18.17;;;16.70;;
19235;SDS011;9752;54.270;12.470;2023-07-16T19:01:55;17.10;;;15.90;;
19235;SDS011;9752;54.270;12.470;2023-07-16T19:06:57;16.50;;;15.47;;
19235;SDS011;9752;54.270;12.470;2023-07-16T19:12:01;16.23;;;15.03;;
19235;SDS011;9752;54.270;12.470;2023-07-16T19:17:03;16.30;;;15.23;;
19235;SDS011;9752;54.270;12.470;2023-07-16T19:22:13;17.70;;;16.20;;
19235;SDS011;9752;54.270;12.470;2023-07-16T19:27:16;16.40;;;15.50;;
19235;SDS011;9752;54.270;12.470;2023-07-16T19:32:17;16.97;;;15.37;;
19235;SDS011;9752;54.270;12.470;2023-07-16T19:37:19;17.07;;;15.67;;
19235;SDS011;9752;54.270;12.470;2023-07-16T19:42:22;15.70;;;14.60;;
19235;SDS011;9752;54.270;12.470;2023-07-16T19:47:25;14.90;;;14.00;;
19235;SDS011;9752;54.270;12.470;2023-07-16T19:52:26;14.17;;;13.20;;
19235;SDS011;9752;54.270;12.470;2023-07-16T19:57:30;12.90;;;11.90;;
19235;SDS011;9752;54.270;12.470;2023-07-16T20:02:34;12.77;;;11.77;;
19235;SDS011;9752;54.270;12.470;2023-07-16T20:07:36;11.77;;;10.90;;
19235;SDS011;9752;54.270;12.470;2023-07-16T20:12:39;11.97;;;10.87;;
19235;SDS011;9752;54.270;12.470;2023-07-16T20:17:40;10.83;;;10.07;;
19235;SDS011;9752;54.270;12.470;2023-07-16T20:22:42;12.03;;;11.07;;
19235;SDS011;9752;54.270;12.470;2023-07-16T20:27:46;13.30;;;10.93;;
19235;SDS011;9752;54.270;12.470;2023-07-16T20:32:55;11.90;;;10.90;;
19235;SDS011;9752;54.270;12.470;2023-07-16T20:38:00;12.00;;;10.90;;
19235;SDS011;9752;54.270;12.470;2023-07-16T20:43:03;10.73;;;9.97;;
19235;SDS011;9752;54.270;12.470;2023-07-16T20:48:04;12.27;;;11.07;;
19235;SDS011;9752;54.270;12.470;2023-07-16T20:53:07;12.87;;;11.70;;
19235;SDS011;9752;54.270;12.470;2023-07-16T20:58:09;12.13;;;11.13;;
19235;SDS011;9752;54.270;12.470;2023-07-16T21:03:11;11.07;;;10.17;;
19235;SDS011;9752;54.270;12.470;2023-07-16T21:08:13;12.73;;;11.63;;
19235;SDS011;9752;54.270;12.470;2023-07-16T21:13:16;11.00;;;10.10;;
19235;SDS011;9752;54.270;12.470;2023-07-16T21:18:18;13.10;;;10.70;;
19235;SDS011;9752;54.270;12.470;2023-07-16T21:23:21;13.10;;;11.93;;
19235;SDS011;9752;54.270;12.470;2023-07-16T21:28:25;12.93;;;11.73;;
19235;SDS011;9752;54.270;12.470;2023-07-16T21:33:26;13.57;;;12.27;;
19235;SDS011;9752;54.270;12.470;2023-07-16T21:38:28;14.17;;;12.70;;
19235;SDS011;9752;54.270;12.470;2023-07-16T21:43:31;13.27;;;11.87;;
19235;SDS011;9752;54.270;12.470;2023-07-16T21:48:33;13.10;;;12.03;;
19235;SDS011;9752;54.270;12.470;2023-07-16T21:53:34;13.03;;;11.73;;
19235;SDS011;9752;54.270;12.470;2023-07-16T21:58:37;11.60;;;10.80;;
19235;SDS011;9752;54.270;12.470;2023-07-16T22:03:39;12.33;;;11.27;;
19235;SDS011;9752;54.270;12.470;2023-07-16T22:08:41;13.20;;;12.00;;
19235;SDS011;9752;54.270;12.470;2023-07-16T22:13:44;11.20;;;10.30;;
19235;SDS011;9752;54.270;12.470;2023-07-16T22:18:49;12.27;;;11.10;;
19235;SDS011;9752;54.270;12.470;2023-07-16T22:23:50;11.00;;;10.20;;
19235;SDS011;9752;54.270;12.470;2023-07-16T22:28:54;11.73;;;10.63;;
19235;SDS011;9752;54.270;12.470;2023-07-16T22:33:56;13.13;;;11.70;;
19235;SDS011;9752;54.270;12.470;2023-07-16T22:38:58;12.93;;;11.73;;
19235;SDS011;9752;54.270;12.470;2023-07-16T22:44:01;12.23;;;11.00;;
19235;SDS011;9752;54.270;12.470;2023-07-16T22:49:03;11.83;;;10.60;;
19235;SDS011;9752;54.270;12.470;2023-07-16T22:54:06;11.40;;;10.40;;
19235;SDS011;9752;54.270;12.470;2023-07-16T22:59:09;12.70;;;11.60;;
19235;SDS011;9752;54.270;12.470;2023-07-16T23:04:11;13.60;;;11.57;;
19235;SDS011;9752;54.270;12.470;2023-07-16T23:09:12;12.73;;;11.53;;
19235;SDS011;9752;54.270;12.470;2023-07-16T23:14:15;12.83;;;11.67;;
19235;SDS011;9752;54.270;12.470;2023-07-16T23:19:17;11.97;;;10.97;;
19235;SDS011;9752;54.270;12.470;2023-07-16T23:24:19;11.87;;;10.67;;
19235;SDS011;9752;54.270;12.470;2023-07-16T23:29:21;12.87;;;11.70;;
19235;SDS011;9752;54.270;12.470;2023-07-16T23:34:23;12.20;;;11.23;;
19235;SDS011;9752;54.270;12.470;2023-07-16T23:39:25;12.07;;;10.77;;
19235;SDS011;9752;54.270;12.470;2023-07-16T23:44:29;13.07;;;11.70;;
19235;SDS011;9752;54.270;12.470;2023-07-16T23:49:30;12.13;;;10.73;;
19235;SDS011;9752;54.270;12.470;2023-07-16T23:54:32;12.03;;;10.93;;
19235;SDS011;9752;54.270;12.470;2023-07-16T23:59:35;12.70;;;11.60;;
